This is the latest recevied weather packets stored in our database for station/object KE6RLG. If no packets are shown the sender has not sent any weather packets the latest 10 day(s).
| Time | Temp. | Humidity | Pressure | Rain* | Wind** | Luminosity | Snow |
|---|---|---|---|---|---|---|---|
| 1777574119 | 18.89° C | 62% | 1012.7 hPa | 0 mm | - | 873 W/m² | - |
| 1777573519 | 18.33° C | 62% | 1012.8 hPa | 0 mm | - | 853 W/m² | - |
| 1777571116 | 18.89° C | 61% | 1013 hPa | 0 mm | - | 774 W/m² | - |
| 1777570220 | 17.78° C | 65% | 1013 hPa | 0 mm | - | 729 W/m² | - |
| 1777568117 | 17.78° C | 67% | 1013 hPa | 0 mm | - | 631 W/m² | - |
| 1777567517 | 17.78° C | 67% | 1013 hPa | 0 mm | - | 597 W/m² | - |
| 1777565721 | 18.33° C | 65% | 1013.1 hPa | 0 mm | - | 493 W/m² | - |
| 1777562118 | 17.22° C | 73% | 1013.3 hPa | 0 mm | - | 276 W/m² | - |
| 1777561819 | 17.22° C | 72% | 1013.3 hPa | 0 mm | - | 271 W/m² | - |
| 1777558219 | 13.89° C | 86% | 1013 hPa | 0 mm | - | 65 W/m² | - |
| 1777557620 | 13.89° C | 87% | 1012.9 hPa | 0 mm | - | 47 W/m² | - |
| 1777555820 | 13.89° C | 88% | 1012.7 hPa | 0 mm | - | 12 W/m² | - |
| 1777554920 | 13.89° C | 88% | 1012.7 hPa | 0 mm | - | 4 W/m² | - |
| 1777552820 | 13.89° C | 89% | 1012.7 hPa | 0 mm | - | 0 W/m² | - |
| 1777551321 | 13.89° C | 90% | 1012.8 hPa | 0 mm | - | 0 W/m² | - |
| 1777550721 | 13.89° C | 90% | 1012.8 hPa | 0 mm | - | 0 W/m² | - |
| 1777548921 | 13.89° C | 91% | 1013 hPa | 0 mm | - | 0 W/m² | - |
| 1777548621 | 13.89° C | 91% | 1013 hPa | 0 mm | - | 0 W/m² | - |
| 1777546822 | 13.33° C | 92% | 1013.1 hPa | 0 mm | - | 0 W/m² | - |
| 1777539023 | 12.22° C | 90% | 1014.2 hPa | 0 mm | - | 0 W/m² | - |
| 1777537844 | 11.67° C | 90% | 1014.4 hPa | 0 mm | - | 0 W/m² | - |
| 1777536324 | 11.67° C | 89% | 1014.5 hPa | 0 mm | - | 0 W/m² | - |
| 1777535124 | 11.67° C | 89% | 1014.6 hPa | 0 mm | - | 0 W/m² | - |
| 1777534825 | 12.22° C | 89% | 1014.5 hPa | 0 mm | - | 0 W/m² | - |
| 1777534225 | 12.22° C | 89% | 1014.5 hPa | 0 mm | - | 0 W/m² | - |
* Rain latest hour (hover to see other rain measurements)
** Current wind speed in m/s (hover to see current wind gust speed)